Portada
METAR-TAF:

METAR-TAF

Aeroports :

Kecskemét, Hongria

latitud: 46-55N, longitud: 019-45E, altitud: 113 m

Observació

L'informe es va fer fa 24 minuts, a les 23:45 UTC
Vent 3 kt del Est/Nord-Est, variant entre Nord/Nord-Est i Est
Temperatura 23°C
Humitat 78%
Pressió 1019 hPa
Visibilitat 10 km o més
sense núvols per sota de 1500 mi sense presència de cumulonimbus.

METAR: LHKE 182345Z 07003KT 030V100 CAVOK 23/19 Q1019 NOSIG RMK BLU

Hora: 02:09 (00:09 UTC)

Pronòstic

L'informe es va fer fa 3 hores i 54 minuts, a les 20:15 UTC
Pronòstic vàlid del 18 a les 21 UTC al 19 a les 06 UTC
Vent 5 kt del Nord-Est
Visibilitat 10 km o més
sense núvols per sota de 1500 mi sense presència de cumulonimbus.

TAF: LHKE 182015Z 1821/1906 04005KT CAVOK

Observacions i pronòstics meteorològics de més de 4000 aeroports (METAR i TAF).

Les estacions disponibles són els punts grocs i vermells al mapa.

Posi el ratolí al punt desitjat per veure el nom de l'estació.

Feu clic per veure les observacions i els pronòstics meteorològics.

Per canviar el mapa: feu clic els botons verds amb una creu de color negre per apropar; al botó verd amb un guió per allunyar la imatge; o en les fletxes verdes per a mapes adjacents.


METAR-TAF: